Terminal Aerodrome Forecast
Issued by NWS Duluth, MN

Home | Current Version | Previous Version | Text Only | Print | Product List | Glossary On
Versions: 1 2 3 4 5 6 7 8 9 10 11 12 13 14 15
270
FTUS43 KDLH 260531
TAFDLH
TAF
KDLH 260531Z 2606/2706 08019G29KT 6SM -FZDZ BR BKN004 OVC010
      TEMPO 2606/2608 5SM -FZDZ BR SCT004 OVC010
     FM260900 08016G26KT P6SM OVC009
     FM261200 07015G23KT P6SM BKN015 OVC035
     FM261500 07015G21KT P6SM SCT015 OVC030
     FM261700 07015G22KT P6SM SCT035
     FM270200 07011KT P6SM SCT250=

USA.gov is the U.S. government's official web portal to all federal, state and local government web resources and services.